Time;durP1;ratioP1;P1;durP2;ratioP2;P2;SDS_P1;SDS_P2;PMS_P1;PMS_P2;Temp;Humidity;BMP_temperature;BMP_pressure;BME280_temperature;BME280_humidity;BME280_pressure;Samples;Min_cycle;Max_cycle;Signal;HPM_P1;HPM_P2
2023/01/04 00:01:31;;;;;;;5.25;1.25;;;;;;;;;;5017162;28;20037;-74
2023/01/04 00:03:57;;;;;;;6.28;1.10;;;;;;;;;;5055590;28;20033;-73
2023/01/04 00:06:22;;;;;;;8.00;1.00;;;;;;;;;;5015471;28;20432;-74
2023/01/04 00:08:47;;;;;;;3.67;1.00;;;;;;;;;;5029640;28;20462;-75
2023/01/04 00:11:18;;;;;;;2.90;0.80;;;;;;;;;;5019947;28;20033;-73
2023/01/04 00:13:45;;;;;;;5.70;0.77;;;;;;;;;;5025205;28;20485;-73
2023/01/04 00:16:16;;;;;;;4.03;1.13;;;;;;;;;;5024946;28;20041;-74
2023/01/04 00:18:42;;;;;;;5.53;1.00;;;;;;;;;;5047049;28;20081;-73
2023/01/04 00:21:14;;;;;;;7.40;0.95;;;;;;;;;;5021900;28;20451;-75
2023/01/04 00:23:41;;;;;;;4.38;0.88;;;;;;;;;;5027085;28;20048;-73
2023/01/04 00:26:10;;;;;;;6.85;1.05;;;;;;;;;;5023514;28;20049;-74
2023/01/04 00:28:36;;;;;;;3.10;0.75;;;;;;;;;;5022884;28;20034;-74
2023/01/04 00:31:06;;;;;;;5.13;0.90;;;;;;;;;;5017140;28;20033;-74
2023/01/04 00:33:32;;;;;;;7.00;1.23;;;;;;;;;;5019446;28;20124;-74
2023/01/04 00:36:03;;;;;;;6.45;1.05;;;;;;;;;;5025268;28;20061;-74
2023/01/04 00:38:28;;;;;;;3.40;1.08;;;;;;;;;;5020786;28;20064;-73
2023/01/04 00:40:53;;;;;;;4.75;1.02;;;;;;;;;;5023121;28;20536;-73
2023/01/04 00:43:19;;;;;;;5.32;1.20;;;;;;;;;;5024696;28;20381;-73
2023/01/04 00:45:44;;;;;;;1.20;0.63;;;;;;;;;;5029277;28;20055;-73
2023/01/04 00:48:09;;;;;;;3.92;1.13;;;;;;;;;;5028894;28;20045;-73
2023/01/04 00:50:35;;;;;;;2.85;0.80;;;;;;;;;;5029925;28;20394;-74
2023/01/04 00:53:00;;;;;;;4.20;1.25;;;;;;;;;;5023939;28;20110;-74
2023/01/04 00:55:25;;;;;;;3.30;0.98;;;;;;;;;;5020366;28;20041;-73
2023/01/04 00:57:51;;;;;;;6.70;1.20;;;;;;;;;;5025199;28;20029;-74
2023/01/04 01:00:16;;;;;;;4.75;0.80;;;;;;;;;;5022669;28;20037;-73
2023/01/04 01:02:42;;;;;;;11.80;1.50;;;;;;;;;;5022411;28;20034;-73
2023/01/04 01:05:07;;;;;;;5.68;0.90;;;;;;;;;;5019972;28;20026;-74
2023/01/04 01:07:32;;;;;;;7.57;1.00;;;;;;;;;;5026149;28;20038;-74
2023/01/04 01:09:58;;;;;;;4.88;0.68;;;;;;;;;;5020019;28;20046;-74
2023/01/04 01:12:23;;;;;;;7.18;1.02;;;;;;;;;;5030573;28;20112;-73
2023/01/04 01:14:48;;;;;;;2.90;0.90;;;;;;;;;;5025695;28;20034;-74
2023/01/04 01:17:14;;;;;;;8.35;1.33;;;;;;;;;;5024956;28;20389;-74
2023/01/04 01:19:39;;;;;;;4.75;0.93;;;;;;;;;;5024598;28;20029;-74
2023/01/04 01:22:04;;;;;;;2.60;0.88;;;;;;;;;;5018811;28;20038;-74
2023/01/04 01:24:30;;;;;;;4.65;0.85;;;;;;;;;;5026072;28;20038;-73
2023/01/04 01:26:55;;;;;;;3.70;1.33;;;;;;;;;;5025313;28;20025;-74
2023/01/04 01:29:21;;;;;;;8.32;1.35;;;;;;;;;;5023994;28;20409;-74
2023/01/04 01:31:46;;;;;;;5.47;0.60;;;;;;;;;;5027443;28;20034;-74
2023/01/04 01:34:11;;;;;;;1.50;0.40;;;;;;;;;;5018928;28;20029;-73
2023/01/04 01:36:37;;;;;;;1.67;0.60;;;;;;;;;;5025836;28;20045;-74
2023/01/04 01:39:03;;;;;;;0.80;0.47;;;;;;;;;;5027042;28;20049;-74
2023/01/04 01:41:30;;;;;;;1.15;0.40;;;;;;;;;;5027887;28;20030;-74
2023/01/04 01:44:02;;;;;;;3.28;0.80;;;;;;;;;;5022840;28;20484;-74
2023/01/04 01:46:41;;;;;;;1.17;0.45;;;;;;;;;;5022718;28;20042;-74
2023/01/04 01:49:36;;;;;;;2.00;0.40;;;;;;;;;;5026955;28;20053;-73
2023/01/04 01:52:04;;;;;;;1.77;0.52;;;;;;;;;;5016694;28;20496;-74
2023/01/04 01:54:36;;;;;;;3.40;0.50;;;;;;;;;;5025739;28;20052;-75
2023/01/04 01:57:03;;;;;;;3.25;0.57;;;;;;;;;;5027694;28;20068;-74
2023/01/04 01:59:30;;;;;;;5.38;0.73;;;;;;;;;;5026415;28;20473;-73
2023/01/04 02:01:56;;;;;;;0.90;0.47;;;;;;;;;;5022061;28;20030;-74
2023/01/04 02:04:21;;;;;;;3.38;0.77;;;;;;;;;;5025867;28;20104;-74
2023/01/04 02:06:51;;;;;;;2.95;0.50;;;;;;;;;;5017158;28;20539;-73
2023/01/04 02:09:17;;;;;;;0.93;0.40;;;;;;;;;;5013519;28;20112;-73
2023/01/04 02:11:43;;;;;;;0.60;0.25;;;;;;;;;;5025824;28;20038;-73
2023/01/04 02:14:26;;;;;;;0.88;0.32;;;;;;;;;;5026488;28;20138;-73
2023/01/04 02:16:55;;;;;;;2.85;0.60;;;;;;;;;;5022921;28;20033;-74
2023/01/04 02:19:36;;;;;;;0.60;0.30;;;;;;;;;;5028029;28;20128;-73
2023/01/04 02:22:25;;;;;;;0.52;0.20;;;;;;;;;;5020017;28;20088;-73
2023/01/04 02:24:54;;;;;;;1.50;0.40;;;;;;;;;;5031585;28;20146;-73
2023/01/04 02:27:35;;;;;;;1.67;0.30;;;;;;;;;;5020822;28;20108;-73
2023/01/04 02:30:03;;;;;;;0.20;0.20;;;;;;;;;;5025123;28;20052;-75
2023/01/04 02:32:43;;;;;;;0.60;0.20;;;;;;;;;;5018287;28;20033;-74
2023/01/04 02:35:32;;;;;;;1.20;0.40;;;;;;;;;;5022351;28;20424;-73
2023/01/04 02:38:10;;;;;;;0.45;0.30;;;;;;;;;;5024642;28;20466;-74
2023/01/04 02:41:04;;;;;;;0.20;0.20;;;;;;;;;;5027509;28;20045;-74
2023/01/04 02:46:18;;;;;;;0.20;0.13;;;;;;;;;;5024149;28;20520;-74
2023/01/04 02:51:31;;;;;;;;;;;;;;;;;;5026531;28;20157;-73
2023/01/04 02:53:59;;;;;;;0.15;0.15;;;;;;;;;;5006325;28;19972;-73
2023/01/04 02:56:44;;;;;;;2.88;0.25;;;;;;;;;;5024418;28;20087;-74
2023/01/04 02:59:18;;;;;;;;;;;;;;;;;;5018113;28;20041;-74
2023/01/04 03:07:36;;;;;;;0.98;0.30;;;;;;;;;;5023109;28;20048;-73
2023/01/04 03:10:34;;;;;;;2.70;0.30;;;;;;;;;;5012120;28;20032;-73
2023/01/04 03:13:09;;;;;;;6.32;0.40;;;;;;;;;;5007858;28;20046;-73
2023/01/04 03:15:36;;;;;;;0.30;0.25;;;;;;;;;;5019696;28;20033;-74
2023/01/04 03:18:09;;;;;;;0.55;0.20;;;;;;;;;;5021564;28;20042;-74
2023/01/04 03:20:35;;;;;;;0.10;0.10;;;;;;;;;;5040808;28;20060;-74
2023/01/04 03:37:25;;;;;;;2.83;0.43;;;;;;;;;;5024873;28;20052;-73
2023/01/04 03:48:33;;;;;;;0.70;0.22;;;;;;;;;;5026758;28;20077;-73
2023/01/04 03:51:04;;;;;;;0.98;0.28;;;;;;;;;;5016676;28;20073;-73
2023/01/04 03:53:32;;;;;;;2.60;0.55;;;;;;;;;;5023615;28;20038;-74
2023/01/04 03:55:58;;;;;;;1.52;0.30;;;;;;;;;;5026171;28;20064;-74
2023/01/04 03:58:24;;;;;;;0.90;0.35;;;;;;;;;;5025117;28;20378;-73
2023/01/04 04:00:50;;;;;;;0.65;0.40;;;;;;;;;;5023932;28;20041;-74
2023/01/04 04:03:15;;;;;;;0.30;0.20;;;;;;;;;;5027738;28;20039;-74
2023/01/04 04:08:29;;;;;;;1.88;0.52;;;;;;;;;;5019141;28;20107;-73
2023/01/04 04:13:48;;;;;;;3.42;0.63;;;;;;;;;;5028688;28;20488;-74
2023/01/04 04:16:14;;;;;;;6.88;0.70;;;;;;;;;;5028440;28;20493;-74
2023/01/04 04:18:39;;;;;;;2.38;0.47;;;;;;;;;;5032030;28;20068;-73
2023/01/04 04:21:05;;;;;;;2.53;0.60;;;;;;;;;;5031050;28;20056;-73
2023/01/04 04:23:30;;;;;;;0.77;0.32;;;;;;;;;;5026369;28;20163;-74
2023/01/04 04:25:56;;;;;;;4.20;0.73;;;;;;;;;;5030845;28;20037;-74
2023/01/04 04:28:21;;;;;;;3.55;0.80;;;;;;;;;;5027505;28;20367;-74
2023/01/04 04:30:49;;;;;;;2.08;0.60;;;;;;;;;;5024209;28;20046;-73
2023/01/04 04:33:15;;;;;;;4.78;0.73;;;;;;;;;;5016428;28;20120;-74
2023/01/04 04:35:40;;;;;;;3.85;0.75;;;;;;;;;;5028558;28;20061;-73
2023/01/04 04:38:06;;;;;;;3.83;0.55;;;;;;;;;;5016912;28;20478;-75
2023/01/04 04:43:15;;;;;;;1.33;0.50;;;;;;;;;;5032977;28;20544;-73
2023/01/04 04:45:40;;;;;;;3.78;0.80;;;;;;;;;;5019218;28;20073;-73
2023/01/04 04:48:06;;;;;;;1.27;0.50;;;;;;;;;;5017602;28;20060;-75
2023/01/04 04:50:31;;;;;;;1.98;0.50;;;;;;;;;;5020818;28;20042;-74
2023/01/04 04:52:56;;;;;;;1.95;0.57;;;;;;;;;;5021530;28;20033;-74
2023/01/04 04:55:22;;;;;;;2.35;0.50;;;;;;;;;;5031636;28;20037;-74
2023/01/04 04:57:47;;;;;;;2.17;0.63;;;;;;;;;;5025353;28;20087;-73
2023/01/04 05:00:13;;;;;;;1.92;0.50;;;;;;;;;;5025252;28;20487;-73
2023/01/04 05:02:38;;;;;;;4.05;0.70;;;;;;;;;;5050646;28;20037;-73
2023/01/04 05:05:04;;;;;;;5.13;0.50;;;;;;;;;;5031414;28;20044;-74
2023/01/04 05:07:30;;;;;;;5.32;0.50;;;;;;;;;;5024767;28;20038;-74
2023/01/04 05:09:55;;;;;;;2.83;0.70;;;;;;;;;;5019384;28;20033;-74
2023/01/04 05:15:04;;;;;;;4.45;0.52;;;;;;;;;;5028056;28;20052;-73
2023/01/04 05:17:30;;;;;;;2.05;0.57;;;;;;;;;;5030705;28;20029;-74
2023/01/04 05:19:55;;;;;;;3.17;0.85;;;;;;;;;;5020291;28;20037;-73
2023/01/04 05:22:21;;;;;;;1.50;0.63;;;;;;;;;;5022969;28;20041;-74
2023/01/04 05:24:46;;;;;;;3.20;0.80;;;;;;;;;;5025701;28;20029;-73
2023/01/04 05:27:11;;;;;;;3.17;1.17;;;;;;;;;;5024542;28;20124;-73
2023/01/04 05:32:21;;;;;;;5.70;1.20;;;;;;;;;;5021193;28;20053;-74
2023/01/04 05:34:46;;;;;;;3.83;1.13;;;;;;;;;;5030131;28;20397;-74
2023/01/04 05:37:11;;;;;;;3.47;1.02;;;;;;;;;;5023899;28;20034;-73
2023/01/04 05:39:37;;;;;;;6.57;0.80;;;;;;;;;;5025047;28;20036;-73
2023/01/04 05:44:46;;;;;;;4.65;1.02;;;;;;;;;;5009400;28;20041;-73
2023/01/04 05:47:11;;;;;;;3.25;1.20;;;;;;;;;;5020789;28;20029;-73
2023/01/04 05:49:37;;;;;;;4.63;1.10;;;;;;;;;;5022950;28;20512;-73
2023/01/04 05:52:02;;;;;;;5.82;1.08;;;;;;;;;;5024698;28;20037;-73
2023/01/04 05:54:27;;;;;;;9.18;1.70;;;;;;;;;;5029048;28;20128;-74
2023/01/04 05:56:53;;;;;;;6.43;0.90;;;;;;;;;;5030484;28;20390;-73
2023/01/04 05:59:18;;;;;;;6.20;1.23;;;;;;;;;;5019616;28;20055;-74
2023/01/04 06:01:43;;;;;;;6.28;1.05;;;;;;;;;;5022406;28;20034;-73
2023/01/04 06:04:09;;;;;;;2.33;0.70;;;;;;;;;;5019988;28;20057;-74
2023/01/04 06:06:34;;;;;;;5.47;0.70;;;;;;;;;;5026312;28;20036;-74
2023/01/04 06:08:59;;;;;;;4.10;1.10;;;;;;;;;;5022686;28;20401;-74
2023/01/04 06:11:25;;;;;;;6.53;2.25;;;;;;;;;;5019742;28;20031;-74
2023/01/04 06:13:50;;;;;;;5.90;1.27;;;;;;;;;;5013947;28;20374;-74
2023/01/04 06:16:16;;;;;;;9.48;1.25;;;;;;;;;;5023442;28;20067;-74
2023/01/04 06:18:41;;;;;;;8.02;1.30;;;;;;;;;;5015510;28;20448;-73
2023/01/04 06:21:06;;;;;;;9.68;1.73;;;;;;;;;;5022443;28;20111;-74
2023/01/04 06:23:32;;;;;;;7.18;1.95;;;;;;;;;;5021898;28;20041;-73
2023/01/04 06:25:57;;;;;;;9.48;1.92;;;;;;;;;;5024170;28;20120;-73
2023/01/04 06:28:22;;;;;;;14.73;2.28;;;;;;;;;;5025208;28;20033;-74
2023/01/04 06:30:48;;;;;;;17.75;2.42;;;;;;;;;;5028263;28;20465;-73
2023/01/04 06:33:13;;;;;;;16.92;2.60;;;;;;;;;;5031097;28;20045;-74
2023/01/04 06:35:38;;;;;;;13.00;2.55;;;;;;;;;;5030672;28;20401;-74
2023/01/04 06:38:04;;;;;;;10.60;1.80;;;;;;;;;;5029391;28;20083;-73
2023/01/04 06:40:29;;;;;;;16.70;2.75;;;;;;;;;;5032146;28;20037;-73
2023/01/04 06:42:55;;;;;;;14.25;2.80;;;;;;;;;;5028212;28;20060;-74
2023/01/04 06:45:20;;;;;;;18.75;3.08;;;;;;;;;;5023659;28;20045;-73
2023/01/04 06:47:46;;;;;;;28.17;3.40;;;;;;;;;;5024795;28;20033;-73
2023/01/04 06:50:12;;;;;;;19.35;3.13;;;;;;;;;;5018559;28;20053;-74
2023/01/04 06:52:38;;;;;;;23.55;3.53;;;;;;;;;;5014575;28;20042;-73
2023/01/04 06:55:04;;;;;;;27.85;3.67;;;;;;;;;;5020719;28;20065;-74
2023/01/04 06:57:30;;;;;;;30.90;3.47;;;;;;;;;;5015668;28;20491;-74
2023/01/04 06:59:56;;;;;;;22.20;3.60;;;;;;;;;;5024334;28;20128;-74
2023/01/04 07:02:21;;;;;;;21.20;3.00;;;;;;;;;;5022512;28;20088;-73
2023/01/04 07:04:46;;;;;;;23.27;3.17;;;;;;;;;;5028441;28;20116;-73
2023/01/04 07:07:12;;;;;;;27.35;3.30;;;;;;;;;;5017987;28;20042;-74
2023/01/04 07:09:37;;;;;;;23.50;3.25;;;;;;;;;;5026507;28;20061;-73
2023/01/04 07:12:03;;;;;;;30.45;3.63;;;;;;;;;;5021417;28;20366;-74
2023/01/04 07:14:29;;;;;;;18.52;2.72;;;;;;;;;;5022852;28;20050;-73
2023/01/04 07:16:54;;;;;;;29.45;4.05;;;;;;;;;;5018845;28;20092;-74
2023/01/04 07:19:19;;;;;;;26.05;3.75;;;;;;;;;;5022745;28;20045;-73
2023/01/04 07:21:45;;;;;;;27.85;4.07;;;;;;;;;;5022171;28;20033;-73
2023/01/04 07:24:10;;;;;;;22.58;3.58;;;;;;;;;;5028450;28;20396;-74
2023/01/04 07:26:36;;;;;;;30.00;3.97;;;;;;;;;;5026818;28;20029;-73
2023/01/04 07:29:13;;;;;;;27.27;3.22;;;;;;;;;;5025924;28;20083;-73
2023/01/04 07:31:39;;;;;;;24.15;3.25;;;;;;;;;;5028828;28;20461;-74
2023/01/04 07:34:05;;;;;;;29.27;3.70;;;;;;;;;;5021569;28;20045;-73
2023/01/04 07:36:30;;;;;;;28.98;4.22;;;;;;;;;;5025657;28;20046;-73
2023/01/04 07:38:55;;;;;;;21.27;3.55;;;;;;;;;;5023198;28;20038;-73
2023/01/04 07:41:21;;;;;;;26.52;3.95;;;;;;;;;;5028629;28;20167;-75
2023/01/04 07:43:46;;;;;;;30.35;3.88;;;;;;;;;;5018890;28;20120;-73
2023/01/04 07:46:11;;;;;;;26.70;3.72;;;;;;;;;;5029218;28;20036;-74
2023/01/04 07:48:37;;;;;;;28.08;3.85;;;;;;;;;;5021977;28;20073;-74
2023/01/04 07:51:02;;;;;;;29.48;4.03;;;;;;;;;;5023675;28;20179;-73
2023/01/04 07:53:28;;;;;;;36.13;4.35;;;;;;;;;;5019917;28;20033;-74
2023/01/04 07:55:55;;;;;;;30.55;3.55;;;;;;;;;;5024540;28;20033;-73
2023/01/04 07:58:22;;;;;;;30.10;3.35;;;;;;;;;;5016847;28;20061;-73
2023/01/04 08:00:47;;;;;;;26.08;3.95;;;;;;;;;;5029970;28;20033;-74
2023/01/04 08:03:13;;;;;;;25.20;3.60;;;;;;;;;;5018914;28;20033;-73
2023/01/04 08:05:38;;;;;;;40.42;5.28;;;;;;;;;;5024903;28;20030;-73
2023/01/04 08:08:04;;;;;;;21.92;2.90;;;;;;;;;;5018492;28;20039;-74
2023/01/04 08:10:29;;;;;;;29.23;4.00;;;;;;;;;;5024453;28;20048;-73
2023/01/04 08:12:58;;;;;;;19.10;3.38;;;;;;;;;;5034654;28;20411;-74
2023/01/04 08:15:23;;;;;;;28.33;3.78;;;;;;;;;;5020729;28;20120;-73
2023/01/04 08:17:48;;;;;;;24.17;3.42;;;;;;;;;;5019066;28;20065;-73
2023/01/04 08:20:14;;;;;;;25.88;3.83;;;;;;;;;;5028047;28;20033;-74
2023/01/04 08:22:39;;;;;;;35.40;4.38;;;;;;;;;;5022570;28;20044;-73
2023/01/04 08:25:05;;;;;;;34.03;4.47;;;;;;;;;;5027937;28;20045;-73
2023/01/04 08:27:31;;;;;;;35.50;4.35;;;;;;;;;;5022309;28;20037;-74
2023/01/04 08:29:57;;;;;;;27.15;4.20;;;;;;;;;;5027054;28;20083;-74
2023/01/04 08:32:22;;;;;;;26.58;2.85;;;;;;;;;;5014800;28;20100;-73
2023/01/04 08:34:48;;;;;;;29.15;4.22;;;;;;;;;;5023488;28;20038;-73
2023/01/04 08:37:13;;;;;;;30.83;3.58;;;;;;;;;;5024726;28;20029;-74
2023/01/04 08:39:39;;;;;;;25.90;3.88;;;;;;;;;;5020014;28;20379;-73
2023/01/04 08:42:04;;;;;;;37.60;4.80;;;;;;;;;;5022624;28;20069;-74
2023/01/04 08:44:30;;;;;;;24.35;3.60;;;;;;;;;;5021366;28;20038;-74
2023/01/04 08:46:57;;;;;;;26.33;4.03;;;;;;;;;;5015631;28;20393;-73
2023/01/04 08:49:23;;;;;;;33.15;4.85;;;;;;;;;;5022222;28;20129;-73
2023/01/04 08:51:49;;;;;;;21.65;3.65;;;;;;;;;;5028313;28;20105;-73
2023/01/04 08:54:14;;;;;;;26.50;3.03;;;;;;;;;;5021145;28;20121;-74
2023/01/04 08:56:39;;;;;;;22.00;3.47;;;;;;;;;;5020190;28;20401;-73
2023/01/04 08:59:06;;;;;;;29.13;3.38;;;;;;;;;;5024774;28;20034;-73
2023/01/04 09:01:32;;;;;;;22.50;3.65;;;;;;;;;;5021985;28;20124;-73
2023/01/04 09:03:58;;;;;;;30.48;4.35;;;;;;;;;;5024362;28;20036;-73
2023/01/04 09:06:23;;;;;;;17.13;2.75;;;;;;;;;;5017977;28;20033;-72
2023/01/04 09:08:49;;;;;;;21.35;3.53;;;;;;;;;;5026369;28;20029;-73
2023/01/04 09:11:20;;;;;;;28.88;3.80;;;;;;;;;;5029662;28;20040;-74
2023/01/04 09:13:46;;;;;;;25.02;3.30;;;;;;;;;;5031265;28;20474;-73
2023/01/04 09:16:17;;;;;;;22.50;4.78;;;;;;;;;;5018688;28;20052;-73
2023/01/04 09:18:43;;;;;;;27.65;3.60;;;;;;;;;;5008465;28;20094;-73
2023/01/04 09:21:17;;;;;;;23.23;3.45;;;;;;;;;;4956845;28;20038;-73
2023/01/04 09:23:43;;;;;;;33.70;4.30;;;;;;;;;;5009062;28;20116;-72
2023/01/04 09:26:17;;;;;;;24.00;3.25;;;;;;;;;;5031432;28;20037;-73
2023/01/04 09:28:43;;;;;;;25.95;3.33;;;;;;;;;;5047731;28;20168;-72
2023/01/04 09:31:11;;;;;;;31.00;4.10;;;;;;;;;;5023780;28;20484;-73
2023/01/04 09:33:36;;;;;;;28.33;3.35;;;;;;;;;;5017823;28;20053;-72
2023/01/04 09:36:03;;;;;;;32.17;4.75;;;;;;;;;;5021511;28;20041;-73
2023/01/04 09:38:29;;;;;;;32.42;3.97;;;;;;;;;;4964664;28;20116;-74
2023/01/04 09:41:13;;;;;;;36.55;3.90;;;;;;;;;;4992521;28;20091;-72
2023/01/04 09:44:15;;;;;;;34.33;4.03;;;;;;;;;;5021153;28;20511;-72
2023/01/04 09:46:56;;;;;;;26.77;4.07;;;;;;;;;;5006660;28;20062;-73
2023/01/04 09:49:30;;;;;;;27.45;5.10;;;;;;;;;;5015072;28;20057;-72
2023/01/04 09:51:57;;;;;;;36.53;4.90;;;;;;;;;;5019271;28;20061;-73
2023/01/04 09:54:28;;;;;;;36.78;4.28;;;;;;;;;;5021207;28;20045;-73
2023/01/04 09:56:57;;;;;;;32.65;4.25;;;;;;;;;;5029683;28;20045;-72
2023/01/04 09:59:28;;;;;;;24.92;4.03;;;;;;;;;;5025984;28;20062;-73
2023/01/04 10:02:09;;;;;;;22.67;4.40;;;;;;;;;;5017859;28;20042;-74
2023/01/04 10:04:44;;;;;;;21.33;2.65;;;;;;;;;;5019069;28;20029;-73
2023/01/04 10:07:17;;;;;;;25.15;3.95;;;;;;;;;;5015412;28;20397;-73
2023/01/04 10:09:43;;;;;;;24.73;4.07;;;;;;;;;;5027510;28;20037;-73
2023/01/04 10:12:38;;;;;;;30.40;4.13;;;;;;;;;;5002444;28;20349;-73
2023/01/04 10:15:11;;;;;;;30.88;3.88;;;;;;;;;;5017516;28;20409;-73
2023/01/04 10:17:42;;;;;;;24.17;3.97;;;;;;;;;;5030665;28;20489;-75
2023/01/04 10:20:14;;;;;;;30.55;4.10;;;;;;;;;;5006417;28;20398;-75
2023/01/04 10:22:44;;;;;;;23.38;3.55;;;;;;;;;;5018250;28;20041;-75
2023/01/04 10:25:29;;;;;;;26.60;4.88;;;;;;;;;;5013597;28;20095;-75
2023/01/04 10:28:03;;;;;;;23.30;4.40;;;;;;;;;;5024454;28;20512;-73
2023/01/04 10:30:54;;;;;;;27.02;3.90;;;;;;;;;;5016467;28;20042;-73
2023/01/04 10:33:21;;;;;;;29.45;3.70;;;;;;;;;;5009626;28;20045;-73
2023/01/04 10:35:47;;;;;;;26.40;3.67;;;;;;;;;;5021894;28;20422;-75
2023/01/04 10:38:27;;;;;;;25.35;3.22;;;;;;;;;;5021185;28;20061;-72
2023/01/04 10:40:53;;;;;;;21.67;3.58;;;;;;;;;;5017604;28;20473;-72
2023/01/04 10:43:33;;;;;;;20.90;2.92;;;;;;;;;;5010867;28;20057;-72
2023/01/04 10:46:11;;;;;;;23.23;3.40;;;;;;;;;;5012146;28;20033;-73
2023/01/04 10:48:40;;;;;;;18.35;3.13;;;;;;;;;;5018022;28;20041;-73
2023/01/04 10:51:06;;;;;;;20.42;3.58;;;;;;;;;;5017477;28;20064;-73
2023/01/04 10:53:43;;;;;;;13.02;2.53;;;;;;;;;;5018527;28;20077;-73
2023/01/04 10:56:12;;;;;;;23.27;4.38;;;;;;;;;;5023244;28;20397;-73
2023/01/04 10:59:09;;;;;;;24.88;3.55;;;;;;;;;;5025444;28;20073;-73
2023/01/04 11:01:42;;;;;;;19.77;3.08;;;;;;;;;;5012318;28;20047;-73
2023/01/04 11:04:12;;;;;;;20.52;3.53;;;;;;;;;;5014273;28;20425;-73
2023/01/04 11:06:45;;;;;;;23.55;3.92;;;;;;;;;;5025048;28;20129;-73
2023/01/04 11:09:39;;;;;;;24.48;3.70;;;;;;;;;;5013914;28;20038;-73
2023/01/04 11:12:05;;;;;;;21.73;3.53;;;;;;;;;;5021872;28;20060;-73
2023/01/04 11:14:30;;;;;;;26.70;4.35;;;;;;;;;;5025756;28;20448;-73
2023/01/04 11:17:00;;;;;;;28.27;4.10;;;;;;;;;;5029432;28;20065;-73
2023/01/04 11:19:27;;;;;;;27.77;3.75;;;;;;;;;;5026580;28;20034;-73
2023/01/04 11:22:42;;;;;;;30.30;4.32;;;;;;;;;;5023753;28;20067;-72
2023/01/04 11:25:12;;;;;;;25.13;3.58;;;;;;;;;;5023038;28;20504;-73
2023/01/04 11:27:50;;;;;;;31.13;4.07;;;;;;;;;;5028825;28;20437;-73
2023/01/04 11:30:28;;;;;;;27.15;3.63;;;;;;;;;;5014437;28;20120;-73
2023/01/04 11:33:02;;;;;;;26.38;3.38;;;;;;;;;;5021673;28;20042;-73
2023/01/04 11:35:38;;;;;;;30.35;5.00;;;;;;;;;;5016937;28;20095;-73
2023/01/04 11:38:16;;;;;;;20.92;3.85;;;;;;;;;;5016282;28;20520;-72
2023/01/04 11:40:57;;;;;;;17.02;4.05;;;;;;;;;;5009613;28;20050;-73
2023/01/04 11:43:24;;;;;;;28.63;4.75;;;;;;;;;;5013943;28;20037;-73
2023/01/04 11:46:15;;;;;;;30.85;4.65;;;;;;;;;;5019799;28;20096;-73
2023/01/04 11:48:43;;;;;;;21.55;3.40;;;;;;;;;;5010465;28;20046;-73
2023/01/04 11:51:19;;;;;;;29.73;4.18;;;;;;;;;;5020638;28;20401;-73
2023/01/04 11:53:46;;;;;;;25.67;4.55;;;;;;;;;;5018700;28;20030;-73
2023/01/04 11:56:20;;;;;;;24.60;3.83;;;;;;;;;;5023108;28;20151;-72
2023/01/04 11:59:12;;;;;;;27.63;4.60;;;;;;;;;;5012540;28;20513;-73
2023/01/04 12:01:51;;;;;;;28.20;4.25;;;;;;;;;;5007521;28;20513;-73
2023/01/04 12:04:26;;;;;;;22.95;4.10;;;;;;;;;;5028081;28;20034;-72
2023/01/04 12:06:55;;;;;;;28.08;4.45;;;;;;;;;;5012730;28;20045;-73
2023/01/04 12:09:21;;;;;;;26.27;4.90;;;;;;;;;;5012170;28;20127;-72
2023/01/04 12:11:52;;;;;;;28.48;4.93;;;;;;;;;;5014061;28;20069;-73
2023/01/04 12:14:27;;;;;;;21.88;4.65;;;;;;;;;;5012356;28;20080;-72
2023/01/04 12:17:12;;;;;;;29.27;4.63;;;;;;;;;;5012394;28;20052;-73
2023/01/04 12:19:42;;;;;;;25.95;4.28;;;;;;;;;;5041104;28;20037;-73
2023/01/04 12:22:32;;;;;;;24.50;3.50;;;;;;;;;;5025614;28;20030;-73
2023/01/04 12:24:58;;;;;;;32.42;4.43;;;;;;;;;;5007809;28;20072;-73
2023/01/04 12:27:24;;;;;;;21.35;3.90;;;;;;;;;;5012665;28;20042;-73
2023/01/04 12:29:54;;;;;;;22.42;4.15;;;;;;;;;;5015110;28;20037;-75
2023/01/04 12:32:25;;;;;;;14.85;3.33;;;;;;;;;;5010837;28;20509;-74
2023/01/04 12:34:51;;;;;;;24.20;4.00;;;;;;;;;;5013368;28;20142;-75
2023/01/04 12:37:44;;;;;;;22.70;3.33;;;;;;;;;;5012481;28;20512;-73
2023/01/04 12:40:44;;;;;;;19.67;3.58;;;;;;;;;;5013401;28;20029;-73
2023/01/04 12:43:15;;;;;;;30.02;4.65;;;;;;;;;;5008057;28;20033;-73
2023/01/04 12:49:02;;;;;;;22.80;3.97;;;;;;;;;;5012539;28;20045;-72
2023/01/04 12:51:20;;;;;;;25.05;3.45;;;;;;;;;;5022965;28;20056;-72
2023/01/04 12:53:48;;;;;;;27.75;4.97;;;;;;;;;;5015823;28;20072;-73
2023/01/04 12:56:14;;;;;;;23.95;4.75;;;;;;;;;;5016648;28;20064;-73
2023/01/04 12:58:41;;;;;;;24.88;4.35;;;;;;;;;;5022529;28;20076;-73
2023/01/04 13:01:08;;;;;;;26.60;4.43;;;;;;;;;;5016393;28;20136;-76
2023/01/04 13:03:41;;;;;;;26.58;4.50;;;;;;;;;;5003692;28;20555;-73
2023/01/04 13:06:07;;;;;;;23.07;3.43;;;;;;;;;;5012734;28;20033;-75
2023/01/04 13:08:40;;;;;;;22.55;4.15;;;;;;;;;;5014140;28;20742;-73
2023/01/04 13:11:22;;;;;;;24.98;3.17;;;;;;;;;;5016338;28;20057;-73
2023/01/04 13:14:11;;;;;;;24.10;4.32;;;;;;;;;;5039996;28;20038;-73
2023/01/04 13:16:48;;;;;;;19.00;2.90;;;;;;;;;;5008836;28;20064;-74
2023/01/04 13:19:21;;;;;;;18.08;3.17;;;;;;;;;;5008474;28;20060;-76
2023/01/04 13:21:47;;;;;;;20.60;3.05;;;;;;;;;;5013140;28;20036;-75
2023/01/04 13:24:33;;;;;;;19.77;3.28;;;;;;;;;;5010757;28;20029;-73
2023/01/04 13:27:18;;;;;;;22.00;2.78;;;;;;;;;;5021872;28;20070;-74
2023/01/04 13:29:45;;;;;;;19.35;3.58;;;;;;;;;;5006708;28;20562;-73
2023/01/04 13:32:22;;;;;;;20.10;2.90;;;;;;;;;;5012490;28;20050;-74
2023/01/04 13:34:53;;;;;;;19.65;2.90;;;;;;;;;;5006721;28;20463;-73
2023/01/04 13:37:29;;;;;;;16.25;3.25;;;;;;;;;;5009236;28;20046;-73
2023/01/04 13:40:26;;;;;;;19.13;3.80;;;;;;;;;;5009878;28;20045;-73
2023/01/04 13:43:30;;;;;;;16.40;2.53;;;;;;;;;;5021126;28;20060;-73
2023/01/04 13:46:17;;;;;;;17.05;2.60;;;;;;;;;;5016411;28;20120;-73
2023/01/04 13:48:46;;;;;;;17.08;3.17;;;;;;;;;;5018308;28;20034;-74
2023/01/04 13:51:16;;;;;;;15.05;2.72;;;;;;;;;;5011015;28;20038;-74
2023/01/04 13:53:50;;;;;;;17.95;2.47;;;;;;;;;;5011360;28;20049;-74
2023/01/04 13:56:19;;;;;;;12.88;2.13;;;;;;;;;;5005448;28;20207;-73
2023/01/04 13:58:44;;;;;;;14.13;2.25;;;;;;;;;;4994957;28;20890;-76
2023/01/04 14:01:10;;;;;;;16.42;3.35;;;;;;;;;;5009158;28;20038;-74
2023/01/04 14:03:41;;;;;;;12.65;2.42;;;;;;;;;;5009397;28;20056;-73
2023/01/04 14:06:13;;;;;;;18.70;6.70;;;;;;;;;;5014747;28;20111;-74
2023/01/04 14:08:40;;;;;;;10.90;2.00;;;;;;;;;;5016444;28;20045;-73
2023/01/04 14:14:38;;;;;;;18.63;5.47;;;;;;;;;;5022659;28;20128;-73
2023/01/04 14:17:09;;;;;;;10.50;2.30;;;;;;;;;;4991245;28;20037;-73
2023/01/04 14:19:41;;;;;;;7.22;1.52;;;;;;;;;;5015754;28;20037;-73
2023/01/04 14:22:25;;;;;;;12.98;2.97;;;;;;;;;;5011993;28;20033;-73
2023/01/04 14:24:53;;;;;;;8.43;2.20;;;;;;;;;;5013148;28;20029;-73
2023/01/04 14:27:37;;;;;;;10.10;2.10;;;;;;;;;;5018119;28;20113;-73
2023/01/04 14:30:23;;;;;;;7.43;1.85;;;;;;;;;;5011609;28;20030;-73
2023/01/04 14:33:00;;;;;;;11.75;2.63;;;;;;;;;;5009483;28;20394;-74
2023/01/04 14:35:28;;;;;;;9.43;2.35;;;;;;;;;;5025814;28;20124;-73
2023/01/04 14:37:53;;;;;;;17.90;2.47;;;;;;;;;;5013321;28;20034;-73
2023/01/04 14:40:23;;;;;;;19.77;2.65;;;;;;;;;;5009312;28;20665;-73
2023/01/04 14:42:48;;;;;;;7.93;2.05;;;;;;;;;;5021766;28;20429;-73
2023/01/04 14:45:13;;;;;;;13.30;2.30;;;;;;;;;;5025345;28;20029;-73
2023/01/04 14:47:40;;;;;;;12.43;1.95;;;;;;;;;;5019609;28;20049;-75
2023/01/04 14:50:06;;;;;;;15.88;2.33;;;;;;;;;;5013051;28;20142;-73
2023/01/04 14:52:32;;;;;;;21.48;3.15;;;;;;;;;;5021438;28;20493;-73
2023/01/04 14:54:58;;;;;;;18.65;2.55;;;;;;;;;;5024001;28;20119;-73
2023/01/04 14:57:23;;;;;;;19.90;2.63;;;;;;;;;;5012807;28;20042;-73
2023/01/04 14:59:49;;;;;;;22.30;3.50;;;;;;;;;;5024076;28;20087;-74
2023/01/04 15:02:14;;;;;;;29.10;3.63;;;;;;;;;;5002439;28;20092;-73
2023/01/04 15:04:39;;;;;;;20.60;3.35;;;;;;;;;;5017571;28;20088;-73
2023/01/04 15:07:05;;;;;;;18.17;3.88;;;;;;;;;;5020523;28;20041;-73
2023/01/04 15:09:30;;;;;;;20.67;3.33;;;;;;;;;;5018681;28;20041;-73
2023/01/04 15:11:56;;;;;;;25.55;3.40;;;;;;;;;;5012779;28;20041;-73
2023/01/04 15:14:22;;;;;;;19.45;2.97;;;;;;;;;;5019405;28;20466;-73
2023/01/04 15:16:48;;;;;;;17.13;3.15;;;;;;;;;;5022572;28;20033;-73
2023/01/04 15:19:14;;;;;;;17.67;2.70;;;;;;;;;;5016351;28;20149;-74
2023/01/04 15:21:39;;;;;;;20.40;3.58;;;;;;;;;;5016448;28;20041;-73
2023/01/04 15:24:05;;;;;;;18.13;3.63;;;;;;;;;;5019698;28;20044;-73
2023/01/04 15:26:31;;;;;;;24.15;3.53;;;;;;;;;;5012459;28;20494;-73
2023/01/04 15:28:56;;;;;;;21.40;2.92;;;;;;;;;;5016092;28;20064;-73
2023/01/04 15:31:21;;;;;;;27.15;3.45;;;;;;;;;;5015916;28;20206;-73
2023/01/04 15:33:47;;;;;;;27.42;3.83;;;;;;;;;;5017030;28;20037;-73
2023/01/04 15:36:14;;;;;;;20.20;2.97;;;;;;;;;;5016837;28;20541;-74
2023/01/04 15:38:39;;;;;;;27.85;3.83;;;;;;;;;;5009850;28;20123;-73
2023/01/04 15:42:57;;;;;;;20.27;3.35;;;;;;;;;;5010433;28;20119;-74
2023/01/04 15:43:56;;;;;;;22.55;3.25;;;;;;;;;;5007302;28;20374;-73
2023/01/04 15:46:21;;;;;;;20.70;2.63;;;;;;;;;;5017928;28;20049;-73
2023/01/04 15:48:47;;;;;;;19.38;3.17;;;;;;;;;;5020082;28;20048;-73